sensor_id;sensor_type;location;lat;lon;timestamp;P1;durP1;ratioP1;P2;durP2;ratioP2
71176;SDS011;58877;51.992;4.504;2023-05-07T00:01:35;13.35;;;13.35;;
71176;SDS011;58877;51.992;4.504;2023-05-07T00:04:07;13.33;;;13.31;;
71176;SDS011;58877;51.992;4.504;2023-05-07T00:06:33;13.96;;;13.96;;
71176;SDS011;58877;51.992;4.504;2023-05-07T00:08:59;13.45;;;13.44;;
71176;SDS011;58877;51.992;4.504;2023-05-07T00:11:26;13.16;;;13.16;;
71176;SDS011;58877;51.992;4.504;2023-05-07T00:13:55;14.04;;;14.04;;
71176;SDS011;58877;51.992;4.504;2023-05-07T00:16:28;13.79;;;13.79;;
71176;SDS011;58877;51.992;4.504;2023-05-07T00:18:54;14.38;;;14.38;;
71176;SDS011;58877;51.992;4.504;2023-05-07T00:21:24;14.19;;;14.17;;
71176;SDS011;58877;51.992;4.504;2023-05-07T00:23:54;15.07;;;15.07;;
71176;SDS011;58877;51.992;4.504;2023-05-07T00:26:23;15.03;;;15.03;;
71176;SDS011;58877;51.992;4.504;2023-05-07T00:28:49;14.20;;;14.20;;
71176;SDS011;58877;51.992;4.504;2023-05-07T00:31:18;14.77;;;14.77;;
71176;SDS011;58877;51.992;4.504;2023-05-07T00:33:45;14.31;;;14.31;;
71176;SDS011;58877;51.992;4.504;2023-05-07T00:36:16;14.47;;;14.46;;
71176;SDS011;58877;51.992;4.504;2023-05-07T00:38:43;13.85;;;13.83;;
71176;SDS011;58877;51.992;4.504;2023-05-07T00:41:11;14.24;;;14.24;;
71176;SDS011;58877;51.992;4.504;2023-05-07T00:43:38;13.94;;;13.94;;
71176;SDS011;58877;51.992;4.504;2023-05-07T00:46:03;14.70;;;14.70;;
71176;SDS011;58877;51.992;4.504;2023-05-07T00:48:30;13.91;;;13.88;;
71176;SDS011;58877;51.992;4.504;2023-05-07T00:50:56;13.75;;;13.73;;
71176;SDS011;58877;51.992;4.504;2023-05-07T00:53:22;13.98;;;13.98;;
71176;SDS011;58877;51.992;4.504;2023-05-07T00:55:48;13.70;;;13.67;;
71176;SDS011;58877;51.992;4.504;2023-05-07T00:58:14;13.90;;;13.89;;
71176;SDS011;58877;51.992;4.504;2023-05-07T01:00:40;13.78;;;13.78;;
71176;SDS011;58877;51.992;4.504;2023-05-07T01:03:06;14.16;;;14.11;;
71176;SDS011;58877;51.992;4.504;2023-05-07T01:05:31;13.91;;;13.90;;
71176;SDS011;58877;51.992;4.504;2023-05-07T01:07:58;13.97;;;13.97;;
71176;SDS011;58877;51.992;4.504;2023-05-07T01:10:25;13.92;;;13.92;;
71176;SDS011;58877;51.992;4.504;2023-05-07T01:12:51;13.91;;;13.91;;
71176;SDS011;58877;51.992;4.504;2023-05-07T01:15:19;14.10;;;14.09;;
71176;SDS011;58877;51.992;4.504;2023-05-07T01:17:44;13.74;;;13.74;;
71176;SDS011;58877;51.992;4.504;2023-05-07T01:20:10;14.91;;;14.91;;
71176;SDS011;58877;51.992;4.504;2023-05-07T01:22:37;13.83;;;13.82;;
71176;SDS011;58877;51.992;4.504;2023-05-07T01:25:07;14.20;;;14.20;;
71176;SDS011;58877;51.992;4.504;2023-05-07T01:27:33;13.54;;;13.53;;
71176;SDS011;58877;51.992;4.504;2023-05-07T01:30:00;14.37;;;14.36;;
71176;SDS011;58877;51.992;4.504;2023-05-07T01:32:29;13.93;;;13.93;;
71176;SDS011;58877;51.992;4.504;2023-05-07T01:35:09;14.19;;;14.19;;
71176;SDS011;58877;51.992;4.504;2023-05-07T01:37:39;14.07;;;14.07;;
71176;SDS011;58877;51.992;4.504;2023-05-07T01:40:07;13.79;;;13.78;;
71176;SDS011;58877;51.992;4.504;2023-05-07T01:42:34;13.81;;;13.80;;
71176;SDS011;58877;51.992;4.504;2023-05-07T01:45:01;13.46;;;13.46;;
71176;SDS011;58877;51.992;4.504;2023-05-07T01:47:28;14.35;;;14.35;;
71176;SDS011;58877;51.992;4.504;2023-05-07T01:49:55;14.32;;;14.31;;
71176;SDS011;58877;51.992;4.504;2023-05-07T01:52:22;14.78;;;14.78;;
71176;SDS011;58877;51.992;4.504;2023-05-07T01:54:47;15.00;;;14.95;;
71176;SDS011;58877;51.992;4.504;2023-05-07T01:57:13;14.73;;;14.73;;
71176;SDS011;58877;51.992;4.504;2023-05-07T01:59:39;14.72;;;14.69;;
71176;SDS011;58877;51.992;4.504;2023-05-07T02:02:05;15.05;;;15.04;;
71176;SDS011;58877;51.992;4.504;2023-05-07T02:04:30;14.60;;;14.60;;
71176;SDS011;58877;51.992;4.504;2023-05-07T02:06:57;14.82;;;14.82;;
71176;SDS011;58877;51.992;4.504;2023-05-07T02:09:23;15.38;;;15.38;;
71176;SDS011;58877;51.992;4.504;2023-05-07T02:11:49;15.38;;;15.38;;
71176;SDS011;58877;51.992;4.504;2023-05-07T02:14:15;15.35;;;15.35;;
71176;SDS011;58877;51.992;4.504;2023-05-07T02:16:40;15.22;;;15.22;;
71176;SDS011;58877;51.992;4.504;2023-05-07T02:19:06;15.56;;;15.56;;
71176;SDS011;58877;51.992;4.504;2023-05-07T02:21:33;15.45;;;15.45;;
71176;SDS011;58877;51.992;4.504;2023-05-07T02:23:58;15.53;;;15.53;;
71176;SDS011;58877;51.992;4.504;2023-05-07T02:26:24;15.68;;;15.68;;
71176;SDS011;58877;51.992;4.504;2023-05-07T02:28:51;15.64;;;15.64;;
71176;SDS011;58877;51.992;4.504;2023-05-07T02:31:17;15.53;;;15.53;;
71176;SDS011;58877;51.992;4.504;2023-05-07T02:33:43;15.06;;;15.06;;
71176;SDS011;58877;51.992;4.504;2023-05-07T02:36:10;15.81;;;15.81;;
71176;SDS011;58877;51.992;4.504;2023-05-07T02:38:38;15.67;;;15.67;;
71176;SDS011;58877;51.992;4.504;2023-05-07T02:41:04;15.82;;;15.81;;
71176;SDS011;58877;51.992;4.504;2023-05-07T02:43:36;15.55;;;15.55;;
71176;SDS011;58877;51.992;4.504;2023-05-07T02:46:14;15.72;;;15.72;;
71176;SDS011;58877;51.992;4.504;2023-05-07T02:48:41;14.81;;;14.81;;
71176;SDS011;58877;51.992;4.504;2023-05-07T02:51:07;15.29;;;15.29;;
71176;SDS011;58877;51.992;4.504;2023-05-07T02:53:33;14.94;;;14.94;;
71176;SDS011;58877;51.992;4.504;2023-05-07T02:56:02;14.85;;;14.85;;
71176;SDS011;58877;51.992;4.504;2023-05-07T02:58:28;14.94;;;14.94;;
71176;SDS011;58877;51.992;4.504;2023-05-07T03:00:54;14.80;;;14.80;;
71176;SDS011;58877;51.992;4.504;2023-05-07T03:03:20;15.37;;;15.37;;
71176;SDS011;58877;51.992;4.504;2023-05-07T03:05:46;14.36;;;14.36;;
71176;SDS011;58877;51.992;4.504;2023-05-07T03:08:13;14.13;;;14.13;;
71176;SDS011;58877;51.992;4.504;2023-05-07T03:10:39;14.29;;;14.29;;
71176;SDS011;58877;51.992;4.504;2023-05-07T03:13:05;14.26;;;14.26;;
71176;SDS011;58877;51.992;4.504;2023-05-07T03:15:31;15.02;;;15.02;;
71176;SDS011;58877;51.992;4.504;2023-05-07T03:17:56;14.17;;;14.17;;
71176;SDS011;58877;51.992;4.504;2023-05-07T03:20:22;13.65;;;13.65;;
71176;SDS011;58877;51.992;4.504;2023-05-07T03:22:48;14.09;;;14.09;;
71176;SDS011;58877;51.992;4.504;2023-05-07T03:25:14;13.21;;;13.21;;
71176;SDS011;58877;51.992;4.504;2023-05-07T03:27:40;13.21;;;13.21;;
71176;SDS011;58877;51.992;4.504;2023-05-07T03:30:09;13.35;;;13.35;;
71176;SDS011;58877;51.992;4.504;2023-05-07T03:32:43;13.17;;;13.17;;
71176;SDS011;58877;51.992;4.504;2023-05-07T03:35:11;13.07;;;13.07;;
71176;SDS011;58877;51.992;4.504;2023-05-07T03:37:38;12.61;;;12.61;;
71176;SDS011;58877;51.992;4.504;2023-05-07T03:40:08;12.38;;;12.38;;
71176;SDS011;58877;51.992;4.504;2023-05-07T03:42:49;12.58;;;12.58;;
71176;SDS011;58877;51.992;4.504;2023-05-07T03:45:31;12.66;;;12.66;;
71176;SDS011;58877;51.992;4.504;2023-05-07T03:48:11;12.50;;;12.50;;
71176;SDS011;58877;51.992;4.504;2023-05-07T03:50:51;12.16;;;12.16;;
71176;SDS011;58877;51.992;4.504;2023-05-07T03:53:17;12.41;;;12.41;;
71176;SDS011;58877;51.992;4.504;2023-05-07T03:55:43;11.94;;;11.94;;
71176;SDS011;58877;51.992;4.504;2023-05-07T03:58:13;12.16;;;12.16;;
71176;SDS011;58877;51.992;4.504;2023-05-07T04:00:39;11.63;;;11.63;;
71176;SDS011;58877;51.992;4.504;2023-05-07T04:03:05;12.32;;;12.32;;
71176;SDS011;58877;51.992;4.504;2023-05-07T04:05:31;11.63;;;11.63;;
71176;SDS011;58877;51.992;4.504;2023-05-07T04:07:58;11.80;;;11.80;;
71176;SDS011;58877;51.992;4.504;2023-05-07T04:10:25;11.89;;;11.89;;
71176;SDS011;58877;51.992;4.504;2023-05-07T04:12:51;11.71;;;11.71;;
71176;SDS011;58877;51.992;4.504;2023-05-07T04:15:18;11.22;;;11.22;;
71176;SDS011;58877;51.992;4.504;2023-05-07T04:17:44;11.69;;;11.69;;
71176;SDS011;58877;51.992;4.504;2023-05-07T04:20:13;11.08;;;11.08;;
71176;SDS011;58877;51.992;4.504;2023-05-07T04:22:41;11.30;;;11.30;;
71176;SDS011;58877;51.992;4.504;2023-05-07T04:25:07;10.99;;;10.99;;
71176;SDS011;58877;51.992;4.504;2023-05-07T04:27:35;11.51;;;11.51;;
71176;SDS011;58877;51.992;4.504;2023-05-07T04:30:04;11.28;;;11.28;;
71176;SDS011;58877;51.992;4.504;2023-05-07T04:32:35;10.78;;;10.78;;
71176;SDS011;58877;51.992;4.504;2023-05-07T04:35:02;11.42;;;11.42;;
71176;SDS011;58877;51.992;4.504;2023-05-07T04:37:29;11.41;;;11.41;;
71176;SDS011;58877;51.992;4.504;2023-05-07T04:39:56;11.32;;;11.32;;
71176;SDS011;58877;51.992;4.504;2023-05-07T04:42:22;11.23;;;11.23;;
71176;SDS011;58877;51.992;4.504;2023-05-07T04:44:52;11.30;;;11.30;;
71176;SDS011;58877;51.992;4.504;2023-05-07T04:47:19;11.42;;;11.42;;
71176;SDS011;58877;51.992;4.504;2023-05-07T04:49:44;10.76;;;10.76;;
71176;SDS011;58877;51.992;4.504;2023-05-07T04:52:11;11.15;;;11.15;;
71176;SDS011;58877;51.992;4.504;2023-05-07T04:54:37;10.72;;;10.72;;
71176;SDS011;58877;51.992;4.504;2023-05-07T04:57:03;10.69;;;10.69;;
71176;SDS011;58877;51.992;4.504;2023-05-07T04:59:30;10.21;;;10.20;;
71176;SDS011;58877;51.992;4.504;2023-05-07T05:01:55;10.81;;;10.81;;
71176;SDS011;58877;51.992;4.504;2023-05-07T05:04:28;10.08;;;10.08;;
71176;SDS011;58877;51.992;4.504;2023-05-07T05:06:56;10.42;;;10.42;;
71176;SDS011;58877;51.992;4.504;2023-05-07T05:09:23;10.64;;;10.64;;
71176;SDS011;58877;51.992;4.504;2023-05-07T05:11:49;10.23;;;10.23;;
71176;SDS011;58877;51.992;4.504;2023-05-07T05:14:15;10.61;;;10.61;;
71176;SDS011;58877;51.992;4.504;2023-05-07T05:16:41;10.32;;;10.32;;
71176;SDS011;58877;51.992;4.504;2023-05-07T05:19:06;10.41;;;10.41;;
71176;SDS011;58877;51.992;4.504;2023-05-07T05:21:32;10.04;;;10.04;;
71176;SDS011;58877;51.992;4.504;2023-05-07T05:23:59;10.26;;;10.26;;
71176;SDS011;58877;51.992;4.504;2023-05-07T05:26:25;9.63;;;9.63;;
71176;SDS011;58877;51.992;4.504;2023-05-07T05:28:51;9.65;;;9.65;;
71176;SDS011;58877;51.992;4.504;2023-05-07T05:31:17;9.75;;;9.75;;
71176;SDS011;58877;51.992;4.504;2023-05-07T05:33:42;10.74;;;10.74;;
71176;SDS011;58877;51.992;4.504;2023-05-07T05:36:11;10.12;;;10.12;;
71176;SDS011;58877;51.992;4.504;2023-05-07T05:38:41;9.86;;;9.86;;
71176;SDS011;58877;51.992;4.504;2023-05-07T05:41:23;9.93;;;9.93;;
71176;SDS011;58877;51.992;4.504;2023-05-07T05:44:31;9.70;;;9.70;;
71176;SDS011;58877;51.992;4.504;2023-05-07T05:53:20;10.00;;;10.00;;
71176;SDS011;58877;51.992;4.504;2023-05-07T05:55:59;10.10;;;10.10;;
71176;SDS011;58877;51.992;4.504;2023-05-07T05:58:25;10.44;;;10.44;;
71176;SDS011;58877;51.992;4.504;2023-05-07T06:00:51;10.05;;;10.05;;
71176;SDS011;58877;51.992;4.504;2023-05-07T06:03:18;10.17;;;10.17;;
71176;SDS011;58877;51.992;4.504;2023-05-07T06:05:43;10.04;;;10.04;;
71176;SDS011;58877;51.992;4.504;2023-05-07T06:08:15;10.63;;;10.63;;
71176;SDS011;58877;51.992;4.504;2023-05-07T06:10:40;10.93;;;10.93;;
71176;SDS011;58877;51.992;4.504;2023-05-07T06:13:07;10.76;;;10.76;;
71176;SDS011;58877;51.992;4.504;2023-05-07T06:15:35;10.45;;;10.45;;
71176;SDS011;58877;51.992;4.504;2023-05-07T06:18:01;10.27;;;10.25;;
71176;SDS011;58877;51.992;4.504;2023-05-07T06:20:27;11.28;;;11.28;;
71176;SDS011;58877;51.992;4.504;2023-05-07T06:22:56;11.42;;;11.42;;
71176;SDS011;58877;51.992;4.504;2023-05-07T06:25:25;10.95;;;10.95;;
71176;SDS011;58877;51.992;4.504;2023-05-07T06:27:50;10.76;;;10.76;;
71176;SDS011;58877;51.992;4.504;2023-05-07T06:30:19;11.01;;;11.01;;
71176;SDS011;58877;51.992;4.504;2023-05-07T06:32:45;11.43;;;11.43;;
71176;SDS011;58877;51.992;4.504;2023-05-07T06:35:10;10.99;;;10.99;;
71176;SDS011;58877;51.992;4.504;2023-05-07T06:37:42;11.21;;;11.21;;
71176;SDS011;58877;51.992;4.504;2023-05-07T06:40:11;10.85;;;10.85;;
71176;SDS011;58877;51.992;4.504;2023-05-07T06:42:37;11.07;;;11.07;;
71176;SDS011;58877;51.992;4.504;2023-05-07T06:45:03;11.84;;;11.84;;
71176;SDS011;58877;51.992;4.504;2023-05-07T06:47:32;11.69;;;11.69;;
71176;SDS011;58877;51.992;4.504;2023-05-07T06:50:01;11.90;;;11.90;;
71176;SDS011;58877;51.992;4.504;2023-05-07T06:52:41;12.01;;;12.01;;
71176;SDS011;58877;51.992;4.504;2023-05-07T06:55:07;12.21;;;12.21;;
71176;SDS011;58877;51.992;4.504;2023-05-07T06:57:33;12.65;;;12.65;;
71176;SDS011;58877;51.992;4.504;2023-05-07T06:59:58;13.06;;;13.06;;
71176;SDS011;58877;51.992;4.504;2023-05-07T07:02:24;13.07;;;13.07;;
71176;SDS011;58877;51.992;4.504;2023-05-07T07:04:50;12.04;;;12.04;;
71176;SDS011;58877;51.992;4.504;2023-05-07T07:07:15;12.14;;;12.14;;
71176;SDS011;58877;51.992;4.504;2023-05-07T07:09:41;12.94;;;12.94;;
71176;SDS011;58877;51.992;4.504;2023-05-07T07:12:06;12.52;;;12.52;;
71176;SDS011;58877;51.992;4.504;2023-05-07T07:14:32;12.10;;;12.10;;
71176;SDS011;58877;51.992;4.504;2023-05-07T07:16:58;12.87;;;12.87;;
71176;SDS011;58877;51.992;4.504;2023-05-07T07:19:49;12.29;;;12.29;;
71176;SDS011;58877;51.992;4.504;2023-05-07T07:22:28;12.37;;;12.37;;
71176;SDS011;58877;51.992;4.504;2023-05-07T07:25:00;11.57;;;11.57;;
71176;SDS011;58877;51.992;4.504;2023-05-07T07:31:17;11.07;;;11.07;;
71176;SDS011;58877;51.992;4.504;2023-05-07T07:33:48;11.23;;;11.23;;
71176;SDS011;58877;51.992;4.504;2023-05-07T07:36:15;10.24;;;10.24;;
71176;SDS011;58877;51.992;4.504;2023-05-07T07:38:41;10.00;;;10.00;;
71176;SDS011;58877;51.992;4.504;2023-05-07T07:41:10;9.57;;;9.57;;
71176;SDS011;58877;51.992;4.504;2023-05-07T07:43:35;10.14;;;10.14;;
71176;SDS011;58877;51.992;4.504;2023-05-07T07:46:01;9.85;;;9.85;;
71176;SDS011;58877;51.992;4.504;2023-05-07T07:48:26;10.22;;;10.22;;
71176;SDS011;58877;51.992;4.504;2023-05-07T07:50:55;9.69;;;9.69;;
71176;SDS011;58877;51.992;4.504;2023-05-07T07:53:20;9.41;;;9.41;;
71176;SDS011;58877;51.992;4.504;2023-05-07T07:55:52;9.05;;;9.05;;
71176;SDS011;58877;51.992;4.504;2023-05-07T07:58:17;9.63;;;9.63;;
71176;SDS011;58877;51.992;4.504;2023-05-07T08:00:43;9.05;;;9.05;;
71176;SDS011;58877;51.992;4.504;2023-05-07T08:03:12;9.05;;;9.05;;
71176;SDS011;58877;51.992;4.504;2023-05-07T08:05:38;9.29;;;9.29;;
71176;SDS011;58877;51.992;4.504;2023-05-07T08:08:03;9.37;;;9.37;;
71176;SDS011;58877;51.992;4.504;2023-05-07T08:10:30;9.37;;;9.37;;
71176;SDS011;58877;51.992;4.504;2023-05-07T08:12:59;9.01;;;9.01;;
71176;SDS011;58877;51.992;4.504;2023-05-07T08:15:25;8.65;;;8.65;;
71176;SDS011;58877;51.992;4.504;2023-05-07T08:17:51;8.77;;;8.77;;
71176;SDS011;58877;51.992;4.504;2023-05-07T08:20:17;9.07;;;9.07;;
71176;SDS011;58877;51.992;4.504;2023-05-07T08:22:43;9.30;;;9.30;;
71176;SDS011;58877;51.992;4.504;2023-05-07T08:25:12;8.76;;;8.76;;
71176;SDS011;58877;51.992;4.504;2023-05-07T08:27:40;8.72;;;8.72;;
71176;SDS011;58877;51.992;4.504;2023-05-07T08:30:06;9.12;;;9.12;;
71176;SDS011;58877;51.992;4.504;2023-05-07T08:32:32;9.27;;;9.27;;
71176;SDS011;58877;51.992;4.504;2023-05-07T08:34:58;8.87;;;8.87;;
71176;SDS011;58877;51.992;4.504;2023-05-07T08:37:25;10.13;;;10.13;;
71176;SDS011;58877;51.992;4.504;2023-05-07T08:39:51;9.78;;;9.78;;
71176;SDS011;58877;51.992;4.504;2023-05-07T08:42:17;9.58;;;9.58;;
71176;SDS011;58877;51.992;4.504;2023-05-07T08:44:44;10.25;;;10.25;;
71176;SDS011;58877;51.992;4.504;2023-05-07T08:47:13;10.32;;;10.32;;
71176;SDS011;58877;51.992;4.504;2023-05-07T08:49:42;10.31;;;10.31;;
71176;SDS011;58877;51.992;4.504;2023-05-07T08:52:09;10.77;;;10.77;;
71176;SDS011;58877;51.992;4.504;2023-05-07T08:54:41;10.24;;;10.24;;
71176;SDS011;58877;51.992;4.504;2023-05-07T08:57:08;11.67;;;11.67;;
71176;SDS011;58877;51.992;4.504;2023-05-07T08:59:34;11.64;;;11.64;;
71176;SDS011;58877;51.992;4.504;2023-05-07T09:02:01;11.93;;;11.93;;
71176;SDS011;58877;51.992;4.504;2023-05-07T09:04:27;12.59;;;12.59;;
71176;SDS011;58877;51.992;4.504;2023-05-07T09:06:52;12.38;;;12.38;;
71176;SDS011;58877;51.992;4.504;2023-05-07T09:09:24;11.41;;;11.41;;
71176;SDS011;58877;51.992;4.504;2023-05-07T09:11:56;10.90;;;10.90;;
71176;SDS011;58877;51.992;4.504;2023-05-07T09:14:27;10.75;;;10.75;;
71176;SDS011;58877;51.992;4.504;2023-05-07T09:16:53;11.45;;;11.45;;
71176;SDS011;58877;51.992;4.504;2023-05-07T09:19:22;11.49;;;11.49;;
71176;SDS011;58877;51.992;4.504;2023-05-07T09:21:49;9.98;;;9.98;;
71176;SDS011;58877;51.992;4.504;2023-05-07T09:24:23;9.47;;;9.47;;
71176;SDS011;58877;51.992;4.504;2023-05-07T09:26:49;9.60;;;9.60;;
71176;SDS011;58877;51.992;4.504;2023-05-07T09:29:15;9.98;;;9.98;;
71176;SDS011;58877;51.992;4.504;2023-05-07T09:31:42;10.35;;;10.35;;
71176;SDS011;58877;51.992;4.504;2023-05-07T09:34:08;9.84;;;9.84;;
71176;SDS011;58877;51.992;4.504;2023-05-07T09:36:33;11.14;;;11.14;;
71176;SDS011;58877;51.992;4.504;2023-05-07T09:39:00;9.20;;;9.20;;
71176;SDS011;58877;51.992;4.504;2023-05-07T09:41:26;9.17;;;9.17;;
71176;SDS011;58877;51.992;4.504;2023-05-07T09:43:58;9.53;;;9.53;;
71176;SDS011;58877;51.992;4.504;2023-05-07T09:46:27;9.70;;;9.70;;
71176;SDS011;58877;51.992;4.504;2023-05-07T09:48:59;9.68;;;9.68;;
71176;SDS011;58877;51.992;4.504;2023-05-07T09:51:30;9.92;;;9.92;;
71176;SDS011;58877;51.992;4.504;2023-05-07T09:54:11;9.63;;;9.63;;
71176;SDS011;58877;51.992;4.504;2023-05-07T09:56:37;9.39;;;9.39;;
71176;SDS011;58877;51.992;4.504;2023-05-07T09:59:07;9.70;;;9.70;;
71176;SDS011;58877;51.992;4.504;2023-05-07T10:01:38;9.14;;;9.14;;
71176;SDS011;58877;51.992;4.504;2023-05-07T10:04:07;9.70;;;9.70;;
71176;SDS011;58877;51.992;4.504;2023-05-07T10:06:37;9.49;;;9.49;;
71176;SDS011;58877;51.992;4.504;2023-05-07T10:09:05;9.84;;;9.84;;
71176;SDS011;58877;51.992;4.504;2023-05-07T10:11:35;9.13;;;9.13;;
71176;SDS011;58877;51.992;4.504;2023-05-07T10:14:04;7.87;;;7.87;;
71176;SDS011;58877;51.992;4.504;2023-05-07T10:16:31;7.18;;;7.18;;
71176;SDS011;58877;51.992;4.504;2023-05-07T10:19:05;7.37;;;7.37;;
71176;SDS011;58877;51.992;4.504;2023-05-07T10:21:39;7.15;;;7.15;;
71176;SDS011;58877;51.992;4.504;2023-05-07T10:24:19;6.06;;;6.06;;
71176;SDS011;58877;51.992;4.504;2023-05-07T10:26:51;6.35;;;6.35;;
71176;SDS011;58877;51.992;4.504;2023-05-07T10:29:21;6.49;;;6.49;;
71176;SDS011;58877;51.992;4.504;2023-05-07T10:34:42;7.28;;;7.28;;
71176;SDS011;58877;51.992;4.504;2023-05-07T10:37:13;6.99;;;6.99;;
71176;SDS011;58877;51.992;4.504;2023-05-07T10:39:41;6.92;;;6.92;;
71176;SDS011;58877;51.992;4.504;2023-05-07T10:42:10;7.21;;;7.21;;
71176;SDS011;58877;51.992;4.504;2023-05-07T10:44:42;5.63;;;5.63;;
71176;SDS011;58877;51.992;4.504;2023-05-07T10:47:11;5.43;;;5.43;;
71176;SDS011;58877;51.992;4.504;2023-05-07T10:52:42;5.82;;;5.82;;
71176;SDS011;58877;51.992;4.504;2023-05-07T10:55:18;5.99;;;5.99;;
71176;SDS011;58877;51.992;4.504;2023-05-07T10:57:54;6.59;;;6.59;;
71176;SDS011;58877;51.992;4.504;2023-05-07T11:05:27;6.70;;;6.70;;
71176;SDS011;58877;51.992;4.504;2023-05-07T11:07:58;7.25;;;7.25;;
71176;SDS011;58877;51.992;4.504;2023-05-07T11:13:41;7.05;;;7.05;;
71176;SDS011;58877;51.992;4.504;2023-05-07T11:18:55;7.36;;;7.36;;
71176;SDS011;58877;51.992;4.504;2023-05-07T11:24:10;7.32;;;7.32;;
71176;SDS011;58877;51.992;4.504;2023-05-07T11:29:16;7.16;;;7.16;;
71176;SDS011;58877;51.992;4.504;2023-05-07T11:31:44;7.66;;;7.66;;
71176;SDS011;58877;51.992;4.504;2023-05-07T11:34:20;7.07;;;7.07;;
71176;SDS011;58877;51.992;4.504;2023-05-07T11:36:50;8.09;;;8.09;;
71176;SDS011;58877;51.992;4.504;2023-05-07T11:41:55;8.39;;;8.39;;
71176;SDS011;58877;51.992;4.504;2023-05-07T11:44:42;8.70;;;8.70;;
71176;SDS011;58877;51.992;4.504;2023-05-07T11:47:10;7.73;;;7.73;;
71176;SDS011;58877;51.992;4.504;2023-05-07T11:49:36;7.91;;;7.91;;
71176;SDS011;58877;51.992;4.504;2023-05-07T11:52:02;8.03;;;8.03;;
71176;SDS011;58877;51.992;4.504;2023-05-07T11:54:34;7.38;;;7.38;;
71176;SDS011;58877;51.992;4.504;2023-05-07T11:57:03;7.27;;;7.27;;
71176;SDS011;58877;51.992;4.504;2023-05-07T11:59:28;6.41;;;6.41;;
71176;SDS011;58877;51.992;4.504;2023-05-07T12:01:56;7.65;;;7.65;;
71176;SDS011;58877;51.992;4.504;2023-05-07T12:04:24;8.01;;;8.00;;
71176;SDS011;58877;51.992;4.504;2023-05-07T12:06:53;10.89;;;10.23;;
71176;SDS011;58877;51.992;4.504;2023-05-07T12:09:21;7.95;;;7.75;;
71176;SDS011;58877;51.992;4.504;2023-05-07T12:11:46;7.02;;;7.02;;
71176;SDS011;58877;51.992;4.504;2023-05-07T12:14:12;8.08;;;8.08;;
71176;SDS011;58877;51.992;4.504;2023-05-07T12:16:39;7.30;;;7.30;;
71176;SDS011;58877;51.992;4.504;2023-05-07T12:19:06;7.55;;;7.55;;
71176;SDS011;58877;51.992;4.504;2023-05-07T12:21:34;7.18;;;7.18;;
71176;SDS011;58877;51.992;4.504;2023-05-07T12:24:01;7.32;;;7.32;;
71176;SDS011;58877;51.992;4.504;2023-05-07T12:26:27;6.82;;;6.82;;
71176;SDS011;58877;51.992;4.504;2023-05-07T12:28:52;7.24;;;7.24;;
71176;SDS011;58877;51.992;4.504;2023-05-07T12:31:18;6.80;;;6.80;;
71176;SDS011;58877;51.992;4.504;2023-05-07T12:33:45;7.66;;;7.66;;
71176;SDS011;58877;51.992;4.504;2023-05-07T12:36:12;7.53;;;7.53;;
71176;SDS011;58877;51.992;4.504;2023-05-07T12:38:38;7.25;;;7.25;;
71176;SDS011;58877;51.992;4.504;2023-05-07T12:41:06;7.63;;;7.63;;
71176;SDS011;58877;51.992;4.504;2023-05-07T12:43:34;10.13;;;10.13;;
71176;SDS011;58877;51.992;4.504;2023-05-07T12:46:01;10.62;;;10.62;;
71176;SDS011;58877;51.992;4.504;2023-05-07T12:48:29;11.14;;;11.14;;
71176;SDS011;58877;51.992;4.504;2023-05-07T12:50:56;12.36;;;12.36;;
71176;SDS011;58877;51.992;4.504;2023-05-07T12:53:24;12.67;;;12.67;;
71176;SDS011;58877;51.992;4.504;2023-05-07T12:55:53;12.64;;;12.64;;
71176;SDS011;58877;51.992;4.504;2023-05-07T12:58:28;14.02;;;14.02;;
71176;SDS011;58877;51.992;4.504;2023-05-07T13:00:57;12.87;;;12.87;;
71176;SDS011;58877;51.992;4.504;2023-05-07T13:03:28;12.93;;;12.93;;
71176;SDS011;58877;51.992;4.504;2023-05-07T13:06:03;12.84;;;12.80;;
71176;SDS011;58877;51.992;4.504;2023-05-07T13:08:32;13.78;;;13.78;;
71176;SDS011;58877;51.992;4.504;2023-05-07T13:11:03;13.94;;;13.94;;
71176;SDS011;58877;51.992;4.504;2023-05-07T13:13:30;12.92;;;12.92;;
71176;SDS011;58877;51.992;4.504;2023-05-07T13:15:56;12.52;;;12.52;;
71176;SDS011;58877;51.992;4.504;2023-05-07T13:18:24;13.05;;;13.05;;
71176;SDS011;58877;51.992;4.504;2023-05-07T13:20:51;13.88;;;13.88;;
71176;SDS011;58877;51.992;4.504;2023-05-07T13:23:17;13.88;;;13.88;;
71176;SDS011;58877;51.992;4.504;2023-05-07T13:25:43;13.65;;;13.65;;
71176;SDS011;58877;51.992;4.504;2023-05-07T13:28:10;12.93;;;12.93;;
71176;SDS011;58877;51.992;4.504;2023-05-07T13:30:36;11.14;;;11.14;;
71176;SDS011;58877;51.992;4.504;2023-05-07T13:33:02;11.62;;;11.62;;
71176;SDS011;58877;51.992;4.504;2023-05-07T13:35:28;10.57;;;10.57;;
71176;SDS011;58877;51.992;4.504;2023-05-07T13:37:53;10.71;;;10.71;;
71176;SDS011;58877;51.992;4.504;2023-05-07T13:40:20;11.30;;;11.30;;
71176;SDS011;58877;51.992;4.504;2023-05-07T13:42:48;10.73;;;10.73;;
71176;SDS011;58877;51.992;4.504;2023-05-07T13:45:14;11.07;;;11.07;;
71176;SDS011;58877;51.992;4.504;2023-05-07T13:47:41;11.70;;;11.70;;
71176;SDS011;58877;51.992;4.504;2023-05-07T13:50:07;11.12;;;11.12;;
71176;SDS011;58877;51.992;4.504;2023-05-07T13:52:34;11.73;;;11.73;;
71176;SDS011;58877;51.992;4.504;2023-05-07T13:55:00;11.54;;;11.54;;
71176;SDS011;58877;51.992;4.504;2023-05-07T13:57:26;12.36;;;12.36;;
71176;SDS011;58877;51.992;4.504;2023-05-07T13:59:51;12.22;;;12.22;;
71176;SDS011;58877;51.992;4.504;2023-05-07T14:02:18;12.24;;;12.24;;
71176;SDS011;58877;51.992;4.504;2023-05-07T14:04:44;11.78;;;11.78;;
71176;SDS011;58877;51.992;4.504;2023-05-07T14:07:12;11.48;;;11.48;;
71176;SDS011;58877;51.992;4.504;2023-05-07T14:09:37;12.52;;;12.52;;
71176;SDS011;58877;51.992;4.504;2023-05-07T14:12:03;12.60;;;12.60;;
71176;SDS011;58877;51.992;4.504;2023-05-07T14:14:29;13.48;;;13.48;;
71176;SDS011;58877;51.992;4.504;2023-05-07T14:16:56;13.69;;;13.69;;
71176;SDS011;58877;51.992;4.504;2023-05-07T14:19:22;14.30;;;14.30;;
71176;SDS011;58877;51.992;4.504;2023-05-07T14:21:49;14.59;;;14.59;;
71176;SDS011;58877;51.992;4.504;2023-05-07T14:24:14;14.60;;;14.60;;
71176;SDS011;58877;51.992;4.504;2023-05-07T14:26:40;15.26;;;15.26;;
71176;SDS011;58877;51.992;4.504;2023-05-07T14:29:06;15.36;;;15.36;;
71176;SDS011;58877;51.992;4.504;2023-05-07T14:31:32;14.76;;;14.76;;
71176;SDS011;58877;51.992;4.504;2023-05-07T14:33:58;14.56;;;14.56;;
71176;SDS011;58877;51.992;4.504;2023-05-07T14:36:25;13.50;;;13.50;;
71176;SDS011;58877;51.992;4.504;2023-05-07T14:38:55;13.30;;;13.30;;
71176;SDS011;58877;51.992;4.504;2023-05-07T14:41:24;14.28;;;14.28;;
71176;SDS011;58877;51.992;4.504;2023-05-07T14:43:50;13.94;;;13.94;;
71176;SDS011;58877;51.992;4.504;2023-05-07T14:46:17;13.48;;;13.48;;
71176;SDS011;58877;51.992;4.504;2023-05-07T14:48:50;14.39;;;14.39;;
71176;SDS011;58877;51.992;4.504;2023-05-07T14:51:16;14.48;;;14.48;;
71176;SDS011;58877;51.992;4.504;2023-05-07T14:53:42;15.35;;;15.35;;
71176;SDS011;58877;51.992;4.504;2023-05-07T14:56:08;15.44;;;15.44;;
71176;SDS011;58877;51.992;4.504;2023-05-07T14:58:34;15.67;;;15.67;;
71176;SDS011;58877;51.992;4.504;2023-05-07T15:01:00;15.48;;;15.48;;
71176;SDS011;58877;51.992;4.504;2023-05-07T15:03:27;15.89;;;15.89;;
71176;SDS011;58877;51.992;4.504;2023-05-07T15:05:53;16.76;;;16.76;;
71176;SDS011;58877;51.992;4.504;2023-05-07T15:08:19;16.71;;;16.71;;